Riverdale, California
Current Conditions -  °F | °C
As of 5:56 AM on Sunday 21 Dec 2014 (Local Time) from KNLC Reporting Station
Overcast Overcast  
Wind Chill: 47°   Ceiling: 600
Heat Index: 47°   Visibility: NA
Dew Point: 46°   Wind: 0mph
Humidity: 97%   Direction: NA
Pressure: 30.28"   Gusts: NA
Location:  36.43°N, 119.86°W
Report Text: KNLC 211356Z AUTO 00000KT OVC006 08/08 A3028 RMK AO2 SLP255 T00830078 RVRNO $
Loading
Personal Weather Stations






























Interactive Weather Map New forecast layout! Learn more

10-Day Weather Forecast

Advertisements
Track Severe Weather on mobile